Terminal Aerodrome Forecast
Issued by NWS Charleston, SC

Current Version | Previous Version | Text Only | Print | Product List | Glossary Off
Versions: 1 2 3 4 5 6 7 8 9 10 11 12 13

000
FTUS42 KCHS 210756 AAA
TAFCHS
TAF AMD
KCHS 210756Z 2108/2206 09005KT P6SM BKN250
      TEMPO 2108/2111 3SM BR SCT003
     FM211900 13009KT P6SM SCT040 BKN200
     FM212100 10006KT P6SM OVC050=

USA.gov is the U.S. government's official web portal to all federal, state and local government web resources and services.